PWSweather.com
Personal Weather Stations
Station Observations
COONRAPIDS
Minneapolis, MN 55433

Minneapolis, MN 55433

Lat: 45.187721, Lon: -93.36828

Elevation: 898

Station Type: Davis Vantage Pro 2

High Low Average
Temperature -12.6°F-24.8°C -27.6°F-33.1°C -21.7°F-29.8°C
Dew Point -25.2°F-31.8°C -36.0°F-37.8°C -31.2°F-35.1°C
Winds 6.9 mph 11.1 kmh Calm Calm 2.0 mph W3.2 kmh W
Wind Gusts 11.5 mph18.5 kmh -- 4.0 mph6.4 kmh
Humidity 69% 52% 60%
Pressure 30.45 in1031.2 mb 30.32 in1026.8 mb -
Precipitation 0.00 in0.0 mm - -
Hour Temp Dew Point Humidity Winds Wind Gusts Pressure Precip Precip Rate Daily Precip Total
12:00 AM -24.7°F-31.5°C -34.1°F-36.7°C 60% 4.6 mph NW7.4 kmh NW 8.1 mph13.0 kmh 30.31 in1026.4 mb - 0.00 in0.0 mm 0.00 in0.0 mm
12:10 AM -24.8°F-31.6°C -34.2°F-36.8°C 60% 4.6 mph NNW7.4 kmh NNW 5.8 mph9.3 kmh 30.32 in1026.8 mb - 0.00 in0.0 mm 0.00 in0.0 mm
12:20 AM -24.8°F-31.6°C -34.2°F-36.8°C 60% 5.8 mph NW9.3 kmh NW 6.9 mph11.1 kmh 30.32 in1026.8 mb - 0.00 in0.0 mm 0.00 in0.0 mm
12:30 AM -24.8°F-31.6°C -33.9°F-36.6°C 61% 1.2 mph NW1.9 kmh NW 5.8 mph9.3 kmh 30.32 in1026.8 mb - 0.00 in0.0 mm 0.00 in0.0 mm
12:40 AM -24.8°F-31.6°C -33.6°F-36.4°C 62% 1.2 mph NW1.9 kmh NW 3.5 mph5.6 kmh 30.32 in1026.8 mb - 0.00 in0.0 mm 0.00 in0.0 mm
12:50 AM -24.9°F-31.6°C -33.9°F-36.6°C 61% 4.6 mph NW7.4 kmh NW 10.4 mph16.7 kmh 30.32 in1026.8 mb - 0.00 in0.0 mm 0.00 in0.0 mm
01:00 AM -25.0°F-31.7°C -34.1°F-36.7°C 61% 2.3 mph NW3.7 kmh NW 3.5 mph5.6 kmh 30.32 in1026.8 mb - 0.00 in0.0 mm 0.00 in0.0 mm
01:10 AM -25.1°F-31.7°C -34.2°F-36.8°C 61% 5.8 mph NW9.3 kmh NW 9.2 mph14.8 kmh 30.32 in1026.8 mb - 0.00 in0.0 mm 0.00 in0.0 mm
01:20 AM -25.2°F-31.8°C -34.5°F-36.9°C 60% 3.5 mph NW5.6 kmh NW 11.5 mph18.5 kmh 30.33 in1027.1 mb - 0.00 in0.0 mm 0.00 in0.0 mm
01:30 AM -25.3°F-31.8°C -34.6°F-37.0°C 60% 4.6 mph NW7.4 kmh NW 10.4 mph16.7 kmh 30.33 in1027.1 mb - 0.00 in0.0 mm 0.00 in0.0 mm
01:40 AM -25.5°F-31.9°C -34.8°F-37.1°C 60% 1.2 mph NW1.9 kmh NW 3.5 mph5.6 kmh 30.33 in1027.1 mb - 0.00 in0.0 mm 0.00 in0.0 mm
01:50 AM -25.6°F-32.0°C -34.9°F-37.2°C 60% 1.2 mph NW1.9 kmh NW 2.3 mph3.7 kmh 30.33 in1027.1 mb - 0.00 in0.0 mm 0.00 in0.0 mm
02:00 AM -25.8°F-32.1°C -35.1°F-37.3°C 60% 3.5 mph NW5.6 kmh NW 6.9 mph11.1 kmh 30.33 in1027.1 mb - 0.00 in0.0 mm 0.00 in0.0 mm
02:10 AM -25.8°F-32.1°C -35.2°F-37.3°C 60% 2.3 mph W3.7 kmh W 5.8 mph9.3 kmh 30.33 in1027.1 mb - 0.00 in0.0 mm 0.00 in0.0 mm
02:20 AM -25.9°F-32.2°C -35.2°F-37.3°C 60% 4.6 mph NW7.4 kmh NW 11.5 mph18.5 kmh 30.33 in1027.1 mb - 0.00 in0.0 mm 0.00 in0.0 mm
02:30 AM -26.0°F-32.2°C -35.3°F-37.4°C 60% 4.6 mph NW7.4 kmh NW 8.1 mph13.0 kmh 30.33 in1027.1 mb - 0.00 in0.0 mm 0.00 in0.0 mm
02:40 AM -26.0°F-32.2°C -35.3°F-37.4°C 60% 2.3 mph WNW3.7 kmh WNW 9.2 mph14.8 kmh 30.33 in1027.1 mb - 0.00 in0.0 mm 0.00 in0.0 mm
02:50 AM -26.1°F-32.3°C -35.4°F-37.4°C 60% 6.9 mph NW11.1 kmh NW 9.2 mph14.8 kmh 30.33 in1027.1 mb - 0.00 in0.0 mm 0.00 in0.0 mm
03:00 AM -26.2°F-32.3°C -35.5°F-37.5°C 60% Calm Calm 2.3 mph3.7 kmh 30.34 in1027.4 mb - 0.00 in0.0 mm 0.00 in0.0 mm
03:10 AM -26.3°F-32.4°C -35.6°F-37.6°C 60% 2.3 mph W3.7 kmh W 5.8 mph9.3 kmh 30.34 in1027.4 mb - 0.00 in0.0 mm 0.00 in0.0 mm
03:20 AM -26.4°F-32.4°C -35.7°F-37.6°C 60% 3.5 mph WNW5.6 kmh WNW 6.9 mph11.1 kmh 30.34 in1027.4 mb - 0.00 in0.0 mm 0.00 in0.0 mm
03:30 AM -26.4°F-32.4°C -35.7°F-37.6°C 60% 1.2 mph NW1.9 kmh NW 3.5 mph5.6 kmh 30.34 in1027.4 mb - 0.00 in0.0 mm 0.00 in0.0 mm
03:40 AM -26.5°F-32.5°C -35.8°F-37.7°C 60% 1.2 mph WNW1.9 kmh WNW 9.2 mph14.8 kmh 30.34 in1027.4 mb - 0.00 in0.0 mm 0.00 in0.0 mm
03:50 AM -26.5°F-32.5°C -35.8°F-37.7°C 60% 2.3 mph W3.7 kmh W 4.6 mph7.4 kmh 30.35 in1027.8 mb - 0.00 in0.0 mm 0.00 in0.0 mm
04:00 AM -26.5°F-32.5°C -35.5°F-37.5°C 61% 4.6 mph WNW7.4 kmh WNW 9.2 mph14.8 kmh 30.35 in1027.8 mb - 0.00 in0.0 mm 0.00 in0.0 mm
04:10 AM -26.5°F-32.5°C -35.5°F-37.5°C 61% 2.3 mph NW3.7 kmh NW 3.5 mph5.6 kmh 30.35 in1027.8 mb - 0.00 in0.0 mm 0.00 in0.0 mm
04:20 AM -26.6°F-32.6°C -35.6°F-37.6°C 61% 2.3 mph WNW3.7 kmh WNW 9.2 mph14.8 kmh 30.35 in1027.8 mb - 0.00 in0.0 mm 0.00 in0.0 mm
04:30 AM -26.6°F-32.6°C -35.6°F-37.6°C 61% 2.3 mph WNW3.7 kmh WNW 5.8 mph9.3 kmh 30.35 in1027.8 mb - 0.00 in0.0 mm 0.00 in0.0 mm
04:40 AM -26.6°F-32.6°C -35.6°F-37.6°C 61% 4.6 mph NW7.4 kmh NW 9.2 mph14.8 kmh 30.35 in1027.8 mb - 0.00 in0.0 mm 0.00 in0.0 mm
04:50 AM -26.7°F-32.6°C -35.7°F-37.6°C 61% 2.3 mph NW3.7 kmh NW 2.3 mph3.7 kmh 30.35 in1027.8 mb - 0.00 in0.0 mm 0.00 in0.0 mm
05:00 AM -26.8°F-32.7°C -35.8°F-37.7°C 61% 1.2 mph NW1.9 kmh NW 6.9 mph11.1 kmh 30.35 in1027.8 mb - 0.00 in0.0 mm 0.00 in0.0 mm
05:10 AM -26.8°F-32.7°C -35.8°F-37.7°C 61% 3.5 mph WNW5.6 kmh WNW 8.1 mph13.0 kmh 30.35 in1027.8 mb - 0.00 in0.0 mm 0.00 in0.0 mm
05:20 AM -26.9°F-32.7°C -35.9°F-37.7°C 61% 2.3 mph WNW3.7 kmh WNW 6.9 mph11.1 kmh 30.36 in1028.1 mb - 0.00 in0.0 mm 0.00 in0.0 mm
05:30 AM -26.9°F-32.7°C -35.6°F-37.6°C 62% 1.2 mph WNW1.9 kmh WNW 6.9 mph11.1 kmh 30.36 in1028.1 mb - 0.00 in0.0 mm 0.00 in0.0 mm
05:40 AM -26.9°F-32.7°C -35.6°F-37.6°C 62% 1.2 mph W1.9 kmh W 5.8 mph9.3 kmh 30.36 in1028.1 mb - 0.00 in0.0 mm 0.00 in0.0 mm
05:50 AM -27.0°F-32.8°C -35.7°F-37.6°C 62% 1.2 mph W1.9 kmh W 5.8 mph9.3 kmh 30.36 in1028.1 mb - 0.00 in0.0 mm 0.00 in0.0 mm
06:00 AM -27.0°F-32.8°C -35.7°F-37.6°C 62% 2.3 mph NW3.7 kmh NW 3.5 mph5.6 kmh 30.35 in1027.8 mb - 0.00 in0.0 mm 0.00 in0.0 mm
06:10 AM -27.1°F-32.8°C -35.8°F-37.7°C 62% Calm Calm -- 30.35 in1027.8 mb - 0.00 in0.0 mm 0.00 in0.0 mm
06:20 AM -27.1°F-32.8°C -35.8°F-37.7°C 62% 3.5 mph WNW5.6 kmh WNW 9.2 mph14.8 kmh 30.36 in1028.1 mb - 0.00 in0.0 mm 0.00 in0.0 mm
06:30 AM -27.1°F-32.8°C -35.8°F-37.7°C 62% 1.2 mph W1.9 kmh W 3.5 mph5.6 kmh 30.36 in1028.1 mb - 0.00 in0.0 mm 0.00 in0.0 mm
06:40 AM -27.2°F-32.9°C -35.9°F-37.7°C 62% 2.3 mph WNW3.7 kmh WNW 6.9 mph11.1 kmh 30.36 in1028.1 mb - 0.00 in0.0 mm 0.00 in0.0 mm
06:50 AM -27.2°F-32.9°C -35.9°F-37.7°C 62% Calm Calm 2.3 mph3.7 kmh 30.36 in1028.1 mb - 0.00 in0.0 mm 0.00 in0.0 mm
07:00 AM -27.3°F-32.9°C -35.7°F-37.6°C 63% 3.5 mph W5.6 kmh W 4.6 mph7.4 kmh 30.36 in1028.1 mb - 0.00 in0.0 mm 0.00 in0.0 mm
07:10 AM -27.3°F-32.9°C -35.7°F-37.6°C 63% 1.2 mph WNW1.9 kmh WNW 9.2 mph14.8 kmh 30.37 in1028.4 mb - 0.00 in0.0 mm 0.00 in0.0 mm
07:20 AM -27.3°F-32.9°C -35.7°F-37.6°C 63% 1.2 mph W1.9 kmh W 4.6 mph7.4 kmh 30.38 in1028.8 mb - 0.00 in0.0 mm 0.00 in0.0 mm
07:30 AM -27.4°F-33.0°C -35.8°F-37.7°C 63% 1.2 mph WNW1.9 kmh WNW 3.5 mph5.6 kmh 30.37 in1028.4 mb - 0.00 in0.0 mm 0.00 in0.0 mm
07:40 AM -27.5°F-33.1°C -35.9°F-37.7°C 63% 1.2 mph NW1.9 kmh NW 3.5 mph5.6 kmh 30.38 in1028.8 mb - 0.00 in0.0 mm 0.00 in0.0 mm
07:50 AM -27.4°F-33.0°C -35.8°F-37.7°C 63% 1.2 mph W1.9 kmh W 3.5 mph5.6 kmh 30.38 in1028.8 mb - 0.00 in0.0 mm 0.00 in0.0 mm
08:00 AM -27.4°F-33.0°C -35.8°F-37.7°C 63% 2.3 mph NW3.7 kmh NW 5.8 mph9.3 kmh 30.38 in1028.8 mb - 0.00 in0.0 mm 0.00 in0.0 mm
08:10 AM -27.5°F-33.1°C -35.9°F-37.7°C 63% 3.5 mph NW5.6 kmh NW 5.8 mph9.3 kmh 30.38 in1028.8 mb - 0.00 in0.0 mm 0.00 in0.0 mm
08:20 AM -27.5°F-33.1°C -35.9°F-37.7°C 63% 3.5 mph NW5.6 kmh NW 6.9 mph11.1 kmh 30.38 in1028.8 mb - 0.00 in0.0 mm 0.00 in0.0 mm
08:30 AM -27.6°F-33.1°C -36.0°F-37.8°C 63% 2.3 mph WNW3.7 kmh WNW 5.8 mph9.3 kmh 30.39 in1029.1 mb - 0.00 in0.0 mm 0.00 in0.0 mm
08:40 AM -27.6°F-33.1°C -36.0°F-37.8°C 63% 1.2 mph NW1.9 kmh NW 3.5 mph5.6 kmh 30.39 in1029.1 mb - 0.00 in0.0 mm 0.00 in0.0 mm
08:50 AM -27.6°F-33.1°C -36.0°F-37.8°C 63% 2.3 mph NW3.7 kmh NW 3.5 mph5.6 kmh 30.39 in1029.1 mb - 0.00 in0.0 mm 0.00 in0.0 mm
09:00 AM -27.5°F-33.1°C -35.9°F-37.7°C 63% 1.2 mph WNW1.9 kmh WNW 5.8 mph9.3 kmh 30.40 in1029.5 mb - 0.00 in0.0 mm 0.00 in0.0 mm
09:10 AM -27.4°F-33.0°C -35.8°F-37.7°C 63% 2.3 mph NW3.7 kmh NW 4.6 mph7.4 kmh 30.40 in1029.5 mb - 0.00 in0.0 mm 0.00 in0.0 mm
09:20 AM -27.1°F-32.8°C -35.5°F-37.5°C 63% 1.2 mph WNW1.9 kmh WNW 6.9 mph11.1 kmh 30.41 in1029.8 mb - 0.00 in0.0 mm 0.00 in0.0 mm
09:30 AM -26.9°F-32.7°C -35.0°F-37.2°C 64% 1.2 mph NW1.9 kmh NW 5.8 mph9.3 kmh 30.41 in1029.8 mb - 0.00 in0.0 mm 0.00 in0.0 mm
09:40 AM -26.3°F-32.4°C -34.8°F-37.1°C 63% Calm Calm 4.6 mph7.4 kmh 30.41 in1029.8 mb - 0.00 in0.0 mm 0.00 in0.0 mm
09:50 AM -25.9°F-32.2°C -34.3°F-36.8°C 63% 3.5 mph W5.6 kmh W 9.2 mph14.8 kmh 30.41 in1029.8 mb - 0.00 in0.0 mm 0.00 in0.0 mm
10:00 AM -25.3°F-31.8°C -34.1°F-36.7°C 62% 5.8 mph WNW9.3 kmh WNW 8.1 mph13.0 kmh 30.41 in1029.8 mb - 0.00 in0.0 mm 0.00 in0.0 mm
10:10 AM -25.1°F-31.7°C -34.2°F-36.8°C 61% 1.2 mph W1.9 kmh W 5.8 mph9.3 kmh 30.42 in1030.1 mb - 0.00 in0.0 mm 0.00 in0.0 mm
10:20 AM -24.5°F-31.4°C -33.6°F-36.4°C 61% 3.5 mph WNW5.6 kmh WNW 4.6 mph7.4 kmh 30.42 in1030.1 mb - 0.00 in0.0 mm 0.00 in0.0 mm
10:30 AM -24.3°F-31.3°C -33.7°F-36.5°C 60% 2.3 mph NW3.7 kmh NW 8.1 mph13.0 kmh 30.41 in1029.8 mb - 0.00 in0.0 mm 0.00 in0.0 mm
10:40 AM -23.8°F-31.0°C -33.2°F-36.2°C 60% 4.6 mph WNW7.4 kmh WNW 6.9 mph11.1 kmh 30.42 in1030.1 mb - 0.00 in0.0 mm 0.00 in0.0 mm
10:50 AM -23.8°F-31.0°C -33.5°F-36.4°C 59% 4.6 mph NW7.4 kmh NW 6.9 mph11.1 kmh 30.42 in1030.1 mb - 0.00 in0.0 mm 0.00 in0.0 mm
11:00 AM -23.7°F-30.9°C -33.4°F-36.3°C 59% 2.3 mph NW3.7 kmh NW 4.6 mph7.4 kmh 30.43 in1030.5 mb - 0.00 in0.0 mm 0.00 in0.0 mm
11:10 AM -22.9°F-30.5°C -32.7°F-35.9°C 59% 2.3 mph WNW3.7 kmh WNW 3.5 mph5.6 kmh 30.43 in1030.5 mb - 0.00 in0.0 mm 0.00 in0.0 mm
11:20 AM -22.6°F-30.3°C -32.4°F-35.8°C 59% 3.5 mph WNW5.6 kmh WNW 5.8 mph9.3 kmh 30.43 in1030.5 mb - 0.00 in0.0 mm 0.00 in0.0 mm
11:30 AM -22.6°F-30.3°C -32.7°F-35.9°C 58% 3.5 mph WNW5.6 kmh WNW 6.9 mph11.1 kmh 30.44 in1030.8 mb - 0.00 in0.0 mm 0.00 in0.0 mm
11:40 AM -22.3°F-30.2°C -32.4°F-35.8°C 58% 2.3 mph W3.7 kmh W 3.5 mph5.6 kmh 30.44 in1030.8 mb - 0.00 in0.0 mm 0.00 in0.0 mm
11:50 AM -21.9°F-29.9°C -32.0°F-35.6°C 58% 2.3 mph W3.7 kmh W 4.6 mph7.4 kmh 30.44 in1030.8 mb - 0.00 in0.0 mm 0.00 in0.0 mm
12:00 PM -21.6°F-29.8°C -31.7°F-35.4°C 58% 2.3 mph WNW3.7 kmh WNW 6.9 mph11.1 kmh 30.44 in1030.8 mb - 0.00 in0.0 mm 0.00 in0.0 mm
12:10 PM -21.1°F-29.5°C -31.3°F-35.2°C 58% 1.2 mph W1.9 kmh W 3.5 mph5.6 kmh 30.44 in1030.8 mb - 0.00 in0.0 mm 0.00 in0.0 mm
12:20 PM -20.6°F-29.2°C -31.1°F-35.1°C 57% Calm Calm 3.5 mph5.6 kmh 30.44 in1030.8 mb - 0.00 in0.0 mm 0.00 in0.0 mm
12:30 PM -19.9°F-28.8°C -30.4°F-34.7°C 57% 3.5 mph W5.6 kmh W 9.2 mph14.8 kmh 30.43 in1030.5 mb - 0.00 in0.0 mm 0.00 in0.0 mm
12:40 PM -19.5°F-28.6°C -30.1°F-34.5°C 57% 4.6 mph WNW7.4 kmh WNW 11.5 mph18.5 kmh 30.43 in1030.5 mb - 0.00 in0.0 mm 0.00 in0.0 mm
12:50 PM -18.9°F-28.3°C -29.8°F-34.3°C 56% 2.3 mph WNW3.7 kmh WNW 5.8 mph9.3 kmh 30.43 in1030.5 mb - 0.00 in0.0 mm 0.00 in0.0 mm
01:00 PM -18.3°F-27.9°C -29.2°F-34.0°C 56% 2.3 mph NW3.7 kmh NW 4.6 mph7.4 kmh 30.43 in1030.5 mb - 0.00 in0.0 mm 0.00 in0.0 mm
01:10 PM -18.4°F-28.0°C -29.4°F-34.1°C 56% 3.5 mph WNW5.6 kmh WNW 5.8 mph9.3 kmh 30.43 in1030.5 mb - 0.00 in0.0 mm 0.00 in0.0 mm
01:20 PM -18.1°F-27.8°C -29.1°F-33.9°C 56% 3.5 mph WNW5.6 kmh WNW 5.8 mph9.3 kmh 30.42 in1030.1 mb - 0.00 in0.0 mm 0.00 in0.0 mm
01:30 PM -17.6°F-27.6°C -28.6°F-33.7°C 56% 3.5 mph WNW5.6 kmh WNW 10.4 mph16.7 kmh 30.42 in1030.1 mb - 0.00 in0.0 mm 0.00 in0.0 mm
01:40 PM -17.1°F-27.3°C -27.8°F-33.2°C 57% 2.3 mph NW3.7 kmh NW 3.5 mph5.6 kmh 30.42 in1030.1 mb - 0.00 in0.0 mm 0.00 in0.0 mm
01:50 PM -16.8°F-27.1°C -27.8°F-33.2°C 56% 2.3 mph NW3.7 kmh NW 5.8 mph9.3 kmh 30.42 in1030.1 mb - 0.00 in0.0 mm 0.00 in0.0 mm
02:00 PM -16.6°F-27.0°C -27.6°F-33.1°C 56% 2.3 mph W3.7 kmh W 4.6 mph7.4 kmh 30.42 in1030.1 mb - 0.00 in0.0 mm 0.00 in0.0 mm
02:10 PM -16.0°F-26.7°C -26.8°F-32.7°C 57% 3.5 mph WNW5.6 kmh WNW 5.8 mph9.3 kmh 30.42 in1030.1 mb - 0.00 in0.0 mm 0.00 in0.0 mm
02:20 PM -15.3°F-26.3°C -26.5°F-32.5°C 56% 2.3 mph W3.7 kmh W 5.8 mph9.3 kmh 30.41 in1029.8 mb - 0.00 in0.0 mm 0.00 in0.0 mm
02:30 PM -15.3°F-26.3°C -26.4°F-32.4°C 56% 2.3 mph WSW3.7 kmh WSW 11.5 mph18.5 kmh 30.42 in1030.1 mb - 0.00 in0.0 mm 0.00 in0.0 mm
02:40 PM -15.1°F-26.2°C -26.2°F-32.3°C 56% 2.3 mph WNW3.7 kmh WNW 3.5 mph5.6 kmh 30.41 in1029.8 mb - 0.00 in0.0 mm 0.00 in0.0 mm
02:50 PM -14.8°F-26.0°C -26.3°F-32.4°C 55% 1.2 mph WNW1.9 kmh WNW 3.5 mph5.6 kmh 30.41 in1029.8 mb - 0.00 in0.0 mm 0.00 in0.0 mm
03:00 PM -14.4°F-25.8°C -25.9°F-32.2°C 55% 1.2 mph W1.9 kmh W 3.5 mph5.6 kmh 30.41 in1029.8 mb - 0.00 in0.0 mm 0.00 in0.0 mm
03:10 PM -14.2°F-25.7°C -26.1°F-32.3°C 54% 3.5 mph WNW5.6 kmh WNW 5.8 mph9.3 kmh 30.41 in1029.8 mb - 0.00 in0.0 mm 0.00 in0.0 mm
03:20 PM -13.8°F-25.4°C -25.7°F-32.1°C 54% Calm Calm -- 30.41 in1029.8 mb - 0.00 in0.0 mm 0.00 in0.0 mm
03:30 PM -14.3°F-25.7°C -26.5°F-32.5°C 53% 1.2 mph WSW1.9 kmh WSW 3.5 mph5.6 kmh 30.41 in1029.8 mb - 0.00 in0.0 mm 0.00 in0.0 mm
03:40 PM -14.1°F-25.6°C -26.0°F-32.2°C 54% Calm Calm -- 30.41 in1029.8 mb - 0.00 in0.0 mm 0.00 in0.0 mm
03:50 PM -13.3°F-25.2°C -25.2°F-31.8°C 54% 1.2 mph NW1.9 kmh NW 3.5 mph5.6 kmh 30.41 in1029.8 mb - 0.00 in0.0 mm 0.00 in0.0 mm
04:00 PM -13.4°F-25.2°C -26.0°F-32.2°C 52% 2.3 mph W3.7 kmh W 3.5 mph5.6 kmh 30.40 in1029.5 mb - 0.00 in0.0 mm 0.00 in0.0 mm
04:10 PM -13.1°F-25.1°C -25.7°F-32.1°C 52% 1.2 mph W1.9 kmh W 2.3 mph3.7 kmh 30.41 in1029.8 mb - 0.00 in0.0 mm 0.00 in0.0 mm
04:20 PM -12.6°F-24.8°C -25.3°F-31.8°C 52% 2.3 mph WSW3.7 kmh WSW 5.8 mph9.3 kmh 30.41 in1029.8 mb - 0.00 in0.0 mm 0.00 in0.0 mm
04:30 PM -13.1°F-25.1°C -25.7°F-32.1°C 52% 1.2 mph W1.9 kmh W 4.6 mph7.4 kmh 30.41 in1029.8 mb - 0.00 in0.0 mm 0.00 in0.0 mm
04:40 PM -13.8°F-25.4°C -26.4°F-32.4°C 52% 2.3 mph W3.7 kmh W 3.5 mph5.6 kmh 30.41 in1029.8 mb - 0.00 in0.0 mm 0.00 in0.0 mm
04:50 PM -14.0°F-25.6°C -26.2°F-32.3°C 53% 4.6 mph WSW7.4 kmh WSW 8.1 mph13.0 kmh 30.41 in1029.8 mb - 0.00 in0.0 mm 0.00 in0.0 mm
05:00 PM -14.4°F-25.8°C -26.6°F-32.6°C 53% 2.3 mph WSW3.7 kmh WSW 3.5 mph5.6 kmh 30.41 in1029.8 mb - 0.00 in0.0 mm 0.00 in0.0 mm
05:10 PM -14.4°F-25.8°C -26.6°F-32.6°C 53% 1.2 mph WSW1.9 kmh WSW 4.6 mph7.4 kmh 30.41 in1029.8 mb - 0.00 in0.0 mm 0.00 in0.0 mm
05:20 PM -14.4°F-25.8°C -26.3°F-32.4°C 54% 2.3 mph WSW3.7 kmh WSW 3.5 mph5.6 kmh 30.41 in1029.8 mb - 0.00 in0.0 mm 0.00 in0.0 mm
05:30 PM -14.7°F-25.9°C -26.5°F-32.5°C 54% 2.3 mph WNW3.7 kmh WNW 3.5 mph5.6 kmh 30.42 in1030.1 mb - 0.00 in0.0 mm 0.00 in0.0 mm
05:40 PM -15.1°F-26.2°C -26.9°F-32.7°C 54% 2.3 mph W3.7 kmh W 4.6 mph7.4 kmh 30.42 in1030.1 mb - 0.00 in0.0 mm 0.00 in0.0 mm
05:50 PM -15.3°F-26.3°C -27.1°F-32.8°C 54% 2.3 mph W3.7 kmh W 3.5 mph5.6 kmh 30.42 in1030.1 mb - 0.00 in0.0 mm 0.00 in0.0 mm
06:00 PM -15.7°F-26.5°C -27.1°F-32.8°C 55% 1.2 mph WSW1.9 kmh WSW 1.2 mph1.9 kmh 30.41 in1029.8 mb - 0.00 in0.0 mm 0.00 in0.0 mm
06:10 PM -15.9°F-26.6°C -27.0°F-32.8°C 56% Calm Calm 2.3 mph3.7 kmh 30.41 in1029.8 mb - 0.00 in0.0 mm 0.00 in0.0 mm
06:20 PM -16.2°F-26.8°C -27.3°F-32.9°C 56% Calm Calm -- 30.41 in1029.8 mb - 0.00 in0.0 mm 0.00 in0.0 mm
06:30 PM -16.5°F-26.9°C -27.2°F-32.9°C 57% 1.2 mph W1.9 kmh W 1.2 mph1.9 kmh 30.41 in1029.8 mb - 0.00 in0.0 mm 0.00 in0.0 mm
06:40 PM -16.8°F-27.1°C -27.2°F-32.9°C 58% Calm Calm 1.2 mph1.9 kmh 30.42 in1030.1 mb - 0.00 in0.0 mm 0.00 in0.0 mm
06:50 PM -17.0°F-27.2°C -27.4°F-33.0°C 58% Calm Calm -- 30.42 in1030.1 mb - 0.00 in0.0 mm 0.00 in0.0 mm
07:00 PM -17.2°F-27.3°C -27.6°F-33.1°C 58% Calm Calm 1.2 mph1.9 kmh 30.42 in1030.1 mb - 0.00 in0.0 mm 0.00 in0.0 mm
07:10 PM -17.4°F-27.4°C -27.5°F-33.1°C 59% Calm Calm 2.3 mph3.7 kmh 30.42 in1030.1 mb - 0.00 in0.0 mm 0.00 in0.0 mm
07:20 PM -17.6°F-27.6°C -27.7°F-33.2°C 59% 1.2 mph WSW1.9 kmh WSW 1.2 mph1.9 kmh 30.43 in1030.5 mb - 0.00 in0.0 mm 0.00 in0.0 mm
07:30 PM -17.9°F-27.7°C -27.6°F-33.1°C 60% Calm Calm 1.2 mph1.9 kmh 30.43 in1030.5 mb - 0.00 in0.0 mm 0.00 in0.0 mm
07:40 PM -18.1°F-27.8°C -27.5°F-33.1°C 61% Calm Calm -- 30.43 in1030.5 mb - 0.00 in0.0 mm 0.00 in0.0 mm
07:50 PM -18.3°F-27.9°C -27.7°F-33.2°C 61% Calm Calm 2.3 mph3.7 kmh 30.43 in1030.5 mb - 0.00 in0.0 mm 0.00 in0.0 mm
08:00 PM -18.4°F-28.0°C -27.5°F-33.1°C 62% Calm Calm 1.2 mph1.9 kmh 30.42 in1030.1 mb - 0.00 in0.0 mm 0.00 in0.0 mm
08:10 PM -18.6°F-28.1°C -27.4°F-33.0°C 63% Calm Calm 1.2 mph1.9 kmh 30.43 in1030.5 mb - 0.00 in0.0 mm 0.00 in0.0 mm
08:20 PM -18.7°F-28.2°C -27.5°F-33.1°C 63% Calm Calm -- 30.43 in1030.5 mb - 0.00 in0.0 mm 0.00 in0.0 mm
08:30 PM -18.9°F-28.3°C -27.7°F-33.2°C 63% Calm Calm -- 30.43 in1030.5 mb - 0.00 in0.0 mm 0.00 in0.0 mm
08:40 PM -18.9°F-28.3°C -27.4°F-33.0°C 64% Calm Calm -- 30.43 in1030.5 mb - 0.00 in0.0 mm 0.00 in0.0 mm
08:50 PM -19.0°F-28.3°C -27.5°F-33.1°C 64% Calm Calm 2.3 mph3.7 kmh 30.43 in1030.5 mb - 0.00 in0.0 mm 0.00 in0.0 mm
09:00 PM -19.2°F-28.4°C -27.7°F-33.2°C 64% Calm Calm -- 30.43 in1030.5 mb - 0.00 in0.0 mm 0.00 in0.0 mm
09:10 PM -19.3°F-28.5°C -27.7°F-33.2°C 64% Calm Calm 2.3 mph3.7 kmh 30.44 in1030.8 mb - 0.00 in0.0 mm 0.00 in0.0 mm
09:20 PM -19.6°F-28.7°C -28.0°F-33.3°C 64% Calm Calm -- 30.44 in1030.8 mb - 0.00 in0.0 mm 0.00 in0.0 mm
09:30 PM -19.6°F-28.7°C -27.7°F-33.2°C 65% Calm Calm 1.2 mph1.9 kmh 30.44 in1030.8 mb - 0.00 in0.0 mm 0.00 in0.0 mm
09:40 PM -19.3°F-28.5°C -27.5°F-33.1°C 65% 1.2 mph WSW1.9 kmh WSW 2.3 mph3.7 kmh 30.44 in1030.8 mb - 0.00 in0.0 mm 0.00 in0.0 mm
09:50 PM -19.4°F-28.6°C -27.6°F-33.1°C 65% Calm Calm -- 30.44 in1030.8 mb - 0.00 in0.0 mm 0.00 in0.0 mm
10:00 PM -19.8°F-28.8°C -27.9°F-33.3°C 65% Calm Calm 1.2 mph1.9 kmh 30.44 in1030.8 mb - 0.00 in0.0 mm 0.00 in0.0 mm
10:10 PM -20.1°F-28.9°C -28.2°F-33.4°C 65% Calm Calm 2.3 mph3.7 kmh 30.43 in1030.5 mb - 0.00 in0.0 mm 0.00 in0.0 mm
10:20 PM -20.3°F-29.1°C -28.1°F-33.4°C 66% Calm Calm -- 30.44 in1030.8 mb - 0.00 in0.0 mm 0.00 in0.0 mm
10:30 PM -20.6°F-29.2°C -28.4°F-33.6°C 66% Calm Calm -- 30.43 in1030.5 mb - 0.00 in0.0 mm 0.00 in0.0 mm
10:40 PM -20.7°F-29.3°C -28.6°F-33.7°C 66% Calm Calm -- 30.43 in1030.5 mb - 0.00 in0.0 mm 0.00 in0.0 mm
10:50 PM -21.0°F-29.4°C -28.8°F-33.8°C 66% Calm Calm -- 30.43 in1030.5 mb - 0.00 in0.0 mm 0.00 in0.0 mm
11:00 PM -21.2°F-29.6°C -28.7°F-33.7°C 67% Calm Calm -- 30.43 in1030.5 mb - 0.00 in0.0 mm 0.00 in0.0 mm
11:10 PM -21.5°F-29.7°C -29.0°F-33.9°C 67% Calm Calm -- 30.43 in1030.5 mb - 0.00 in0.0 mm 0.00 in0.0 mm
11:20 PM -21.6°F-29.8°C -29.1°F-33.9°C 67% Calm Calm -- 30.44 in1030.8 mb - 0.00 in0.0 mm 0.00 in0.0 mm
11:30 PM -21.7°F-29.8°C -29.2°F-34.0°C 67% Calm Calm -- 30.43 in1030.5 mb - 0.00 in0.0 mm 0.00 in0.0 mm
11:40 PM -22.0°F-30.0°C -29.5°F-34.2°C 67% Calm Calm -- 30.44 in1030.8 mb - 0.00 in0.0 mm 0.00 in0.0 mm
11:50 PM -22.1°F-30.1°C -29.3°F-34.1°C 68% Calm Calm -- 30.44 in1030.8 mb - 0.00 in0.0 mm 0.00 in0.0 mm